Kezdőlap
METAR-TAF:

METAR-TAF

Repülőterek :

Sullivan County International Airport

Monticello, New York, Amerikai Egyesült Államok

földrajzi szélesség: 41-42N, földrajzi hosszúság: 074-48W, magasság: 428 m

Jelenlegi meteorológiai megfigyelések

A jelentés 1 órával és 2 perccel ezelõtt készült, 18:56 UTC
Kelet-délkeleti szél 3 kt
Hőmérséklet 28°C
Páratartalom 51%
Légköri nyomás 1022 hPa
Látótávolság: 9.7 km
Kevés felhő 5000 lábon
Szakadozott felhőzet 6000 lábon
Száraz légköri homály

METAR: KMSV 261856Z AUTO 12003KT 6SM HZ FEW050 BKN060 28/17 A3018 RMK AO2 SLP214 T02830172

Idő: 15:58 (19:58 UTC)


TAF: hiányzik

Meteorológiai megfigyelések és előrejelzések több, mint 4000 repülőtéren (METAR és TAF jelentéseket).

A térképen piros és sárga pontok jelzik az elérhető meteorológiai állomásokat.

Mozgassa az egeret a pont fölött, hogy megjelenjen az állomás neve.

Azután kattintson az időjárási megfigyelések és előrejelzések megtekintéséhez.

A térkép megváltoztatása: kattintson a fekete keresztel jelölt zöld gombra ráközelítéshez, a vonallal jelölt zöld gombra távolításhoz, vagy a zöld nyilakra a szomszédos térképek eléréséhez.


METAR-TAF: